Airfield :
LOGIN :

Register | Disclaimer

   EN    FR    IT 

 










Legend :    VFR   Marginal VFR   IFR   Intensive IFR   Very Intensive IFR
Visi :
Ceiling :
>= 8 km
>= 3000ft
5 to 8 km
1000 to 3000 ft
1500m to 5 km
500 to 1000 ft
800 to 1500m
200 to 500 ft
< 800m
< 200 ft
Symbols :   Thunderstorms  Fog  Heavy snow  Heavy precipitations  Wind > 20 kt
SIGMETs :     Misc.  Thunderstorms  Icing  Turbulence  Mountain Waves  Volcanic Ashes






- Airport Elevation : 1521 ft
- IATA code : NCY


LFLP - Annecy

CURRENT METAR :
  • 091830Z AUTO VRB02KT 9000 -RA BKN010 BKN015 BKN023 03/02 Q1001 BECMG BKN017

EXPIRED METARs :
  • 091800Z AUTO 25003KT 8000 -RA FEW010 SCT017 OVC023 03/02 Q1001 NOSIG
  • 091730Z AUTO VRB02KT 6000 -RA BKN021 BKN030 OVC056 03/02 Q1000 NOSIG
  • 091700Z AUTO VRB02KT 7000 -RA SCT020 BKN025 BKN033 02/02 Q1000 TEMPO 4000 RA BR BKN006
  • 091630Z AUTO 30006KT 270V330 9999 -RA BKN019 OVC033 02/02 Q1000 TEMPO 4000 RA BR BKN006
  • 091600Z AUTO 31005KT 9999 -RA BKN017 BKN040 OVC047 03/02 Q1000 TEMPO 4000 RA BR BKN006

TAF AMD TAF LFLP
Valid from the 09 at 18:00 until the 10 at 15:00 UTC


091839Z 0918/1015 VRB03KT 8000 -RA BKN017
PROB40
TEMPO 0918/0921 4000 RA BR BKN009
PROB40
TEMPO 1002/1012 1500 -SN BKN004
BECMG 1012/1014 23006KT 9999 NSW BKN030



MET'MAP, your aeronautical weather chart ! - Copyright ORBIFLY December 2007 - Disclaimer

ORBIFLY MET'MAP TEAM :

Programming & Development : Alexandra Zaïnal
Original concept : Baudouin d'Aumeries
Technical & hardware support : Manuel Goepfert
Assistance : Marc-Olivier Méhu




SOURCES & CREDITS :

   NOAA